createdAt,value
2024-02-24T00:00:27.129Z,1.70
2024-02-24T00:02:53.868Z,3.33
2024-02-24T00:05:20.535Z,2.22
2024-02-24T00:07:47.167Z,4.47
2024-02-24T00:10:13.843Z,3.55
2024-02-24T00:12:40.464Z,2.53
2024-02-24T00:15:10.791Z,1.48
2024-02-24T00:17:40.112Z,2.25
2024-02-24T00:20:10.489Z,1.85
2024-02-24T00:22:37.454Z,2.28
2024-02-24T00:25:04.427Z,5.10
2024-02-24T00:27:30.987Z,5.20
2024-02-24T00:29:57.524Z,1.45
2024-02-24T00:32:24.090Z,2.20
2024-02-24T00:34:50.729Z,1.58
2024-02-24T00:37:17.323Z,1.25
2024-02-24T00:39:43.852Z,1.88
2024-02-24T00:42:10.373Z,3.22
2024-02-24T00:44:36.895Z,2.58
2024-02-24T00:47:03.736Z,2.88
2024-02-24T00:49:33.186Z,1.73
2024-02-24T00:51:59.845Z,1.77
2024-02-24T00:54:26.767Z,0.88
2024-02-24T00:56:54.226Z,1.20
2024-02-24T00:59:20.822Z,3.42
2024-02-24T01:01:48.014Z,3.67
2024-02-24T01:04:14.724Z,2.17
2024-02-24T01:06:41.474Z,3.03
2024-02-24T01:09:08.190Z,1.42
2024-02-24T01:11:34.905Z,1.90
2024-02-24T01:14:01.739Z,2.28
2024-02-24T01:16:28.769Z,1.25
2024-02-24T01:18:55.500Z,2.38
2024-02-24T01:21:22.493Z,4.95
2024-02-24T01:23:49.154Z,2.05
2024-02-24T01:26:15.779Z,1.52
2024-02-24T01:28:43.599Z,1.00
2024-02-24T01:31:10.923Z,3.42
2024-02-24T01:33:37.670Z,1.80
2024-02-24T01:36:04.582Z,2.40
2024-02-24T01:38:31.125Z,1.08
2024-02-24T01:40:57.755Z,0.60
2024-02-24T01:43:25.775Z,4.22
2024-02-24T01:45:55.025Z,0.95
2024-02-24T01:48:21.899Z,1.42
2024-02-24T01:50:50.995Z,2.60
2024-02-24T01:53:21.898Z,1.65
2024-02-24T01:55:51.225Z,2.30
2024-02-24T01:58:19.299Z,0.30
2024-02-24T02:00:46.768Z,1.70
2024-02-24T02:03:13.620Z,0.45
2024-02-24T02:05:41.192Z,1.10
2024-02-24T02:08:07.936Z,1.88
2024-02-24T02:10:48.418Z,0.90
2024-02-24T02:13:15.484Z,2.58
2024-02-24T02:15:43.132Z,1.25
2024-02-24T02:18:09.983Z,3.78
2024-02-24T02:20:36.791Z,2.30
2024-02-24T02:23:04.047Z,1.48
2024-02-24T02:25:30.812Z,2.88
2024-02-24T02:27:57.437Z,0.98
2024-02-24T02:30:24.153Z,2.97
2024-02-24T02:32:50.880Z,0.65
2024-02-24T02:35:18.294Z,4.22
2024-02-24T02:37:45.069Z,2.10
2024-02-24T02:40:11.901Z,1.00
2024-02-24T02:42:38.962Z,3.45
2024-02-24T02:45:06.054Z,2.42
2024-02-24T02:47:33.502Z,2.75
2024-02-24T02:50:00.217Z,1.95
2024-02-24T02:52:26.907Z,1.92
2024-02-24T02:54:53.505Z,2.60
2024-02-24T02:57:20.044Z,1.88
2024-02-24T02:59:46.837Z,0.80
2024-02-24T03:02:13.558Z,4.43
2024-02-24T03:04:40.245Z,2.90
2024-02-24T03:07:06.818Z,3.25
2024-02-24T03:09:33.362Z,2.95
2024-02-24T03:12:00.236Z,2.10
2024-02-24T03:14:26.866Z,3.28
2024-02-24T03:16:55.270Z,1.90
2024-02-24T03:19:22.269Z,4.82
2024-02-24T03:21:49.094Z,3.50
2024-02-24T03:24:15.732Z,2.03
2024-02-24T03:26:42.534Z,1.63
2024-02-24T03:29:09.232Z,1.80
2024-02-24T03:31:35.943Z,2.03
2024-02-24T03:34:02.754Z,3.67
2024-02-24T03:36:29.377Z,1.88
2024-02-24T03:38:55.994Z,2.65
2024-02-24T03:41:22.627Z,1.83
2024-02-24T03:43:49.234Z,1.98
2024-02-24T03:46:16.177Z,1.38
2024-02-24T03:48:46.944Z,5.10
2024-02-24T03:51:13.771Z,3.58
2024-02-24T03:53:41.107Z,4.95
2024-02-24T03:56:08.759Z,1.75
2024-02-24T03:58:35.427Z,2.05
2024-02-24T04:01:02.102Z,1.83
2024-02-24T04:03:28.874Z,1.95
2024-02-24T04:05:56.011Z,1.77
2024-02-24T04:08:23.011Z,2.33
2024-02-24T04:10:49.665Z,2.78
2024-02-24T04:13:16.924Z,1.88
2024-02-24T04:15:51.620Z,1.45
2024-02-24T04:20:46.481Z,1.13
2024-02-24T04:23:13.186Z,2.72
2024-02-24T04:25:40.121Z,1.00
2024-02-24T04:28:06.821Z,0.77
2024-02-24T04:30:33.383Z,2.53
2024-02-24T04:33:00.071Z,1.77
2024-02-24T04:35:26.803Z,3.40
2024-02-24T04:37:53.514Z,2.17
2024-02-24T04:40:21.163Z,1.85
2024-02-24T04:42:48.078Z,2.58
2024-02-24T04:45:14.671Z,2.03
2024-02-24T04:47:41.358Z,1.65
2024-02-24T04:50:08.762Z,1.35
2024-02-24T04:52:35.346Z,0.73
2024-02-24T04:55:01.946Z,1.00
2024-02-24T04:57:28.564Z,3.50
2024-02-24T04:59:55.170Z,4.72
2024-02-24T05:02:21.784Z,1.15
2024-02-24T05:04:48.541Z,4.35
2024-02-24T05:07:15.135Z,0.85
2024-02-24T05:09:44.755Z,1.58
2024-02-24T05:12:11.651Z,1.83
2024-02-24T05:14:39.043Z,2.05
2024-02-24T05:17:08.729Z,2.55
2024-02-24T05:19:35.617Z,1.40
2024-02-24T05:22:02.286Z,0.40
2024-02-24T05:24:28.840Z,1.10
2024-02-24T05:26:55.498Z,2.40
2024-02-24T05:29:22.170Z,0.50
2024-02-24T05:31:48.707Z,1.00
2024-02-24T05:34:15.361Z,1.85
2024-02-24T05:36:42.094Z,1.95
2024-02-24T05:39:09.079Z,1.33
2024-02-24T05:41:35.630Z,0.90
2024-02-24T05:44:02.278Z,0.40
2024-02-24T05:46:28.837Z,0.40
2024-02-24T05:48:55.384Z,0.80
2024-02-24T05:51:22.790Z,1.05
2024-02-24T05:53:50.021Z,0.50
2024-02-24T05:56:17.158Z,2.05
2024-02-24T05:58:44.242Z,2.53
2024-02-24T06:01:10.906Z,2.15
2024-02-24T06:03:37.976Z,1.20
2024-02-24T06:06:04.972Z,0.98
2024-02-24T06:08:33.542Z,1.25
2024-02-24T06:11:00.260Z,1.50
2024-02-24T06:13:26.839Z,0.32
2024-02-24T06:15:53.343Z,1.27
2024-02-24T06:18:21.209Z,0.68
2024-02-24T06:20:48.106Z,3.35
2024-02-24T06:23:15.029Z,1.20
2024-02-24T06:25:41.592Z,0.52
2024-02-24T06:28:11.847Z,0.93
2024-02-24T06:30:38.994Z,0.30
2024-02-24T06:33:07.051Z,0.93
2024-02-24T06:35:34.233Z,0.45
2024-02-24T06:38:01.319Z,2.08
2024-02-24T06:40:33.525Z,0.75
2024-02-24T06:43:07.874Z,0.57
2024-02-24T06:45:34.551Z,1.08
2024-02-24T06:48:01.302Z,0.90
2024-02-24T06:50:28.451Z,1.00
2024-02-24T06:52:55.287Z,0.30
2024-02-24T06:55:21.860Z,0.90
2024-02-24T06:57:50.399Z,2.05
2024-02-24T07:00:17.695Z,0.98
2024-02-24T07:02:44.357Z,0.70
2024-02-24T07:05:11.056Z,3.95
2024-02-24T07:07:37.680Z,0.52
2024-02-24T07:10:07.801Z,0.82
2024-02-24T07:12:34.436Z,0.75
2024-02-24T07:15:01.417Z,0.60
2024-02-24T07:17:29.010Z,1.17
2024-02-24T07:19:56.001Z,2.47
2024-02-24T07:22:22.808Z,2.70
2024-02-24T07:24:50.125Z,2.15
2024-02-24T07:27:16.722Z,0.52
2024-02-24T07:29:43.922Z,0.50
2024-02-24T07:32:10.665Z,1.58
2024-02-24T07:34:37.406Z,1.20
2024-02-24T07:37:04.208Z,0.55
2024-02-24T07:39:30.859Z,1.88
2024-02-24T07:41:57.504Z,3.75
2024-02-24T07:44:24.177Z,3.00
2024-02-24T07:46:51.705Z,1.92
2024-02-24T07:49:18.342Z,1.50
2024-02-24T07:51:45.033Z,0.50
2024-02-24T07:54:11.880Z,1.25
2024-02-24T07:56:38.647Z,1.55
2024-02-24T07:59:05.276Z,0.43
2024-02-24T08:01:32.146Z,0.40
2024-02-24T08:03:58.793Z,0.73
2024-02-24T08:06:25.411Z,1.20
2024-02-24T08:08:54.226Z,0.30
2024-02-24T08:11:21.059Z,2.45
2024-02-24T08:13:48.420Z,1.63
2024-02-24T08:16:15.078Z,0.25
2024-02-24T08:18:41.833Z,0.85
2024-02-24T08:21:09.552Z,1.75
2024-02-24T08:23:36.634Z,1.08
2024-02-24T08:26:03.942Z,0.55
2024-02-24T08:28:30.962Z,1.00
2024-02-24T08:30:57.741Z,1.13
2024-02-24T08:33:24.613Z,0.52
2024-02-24T08:35:51.726Z,1.70
2024-02-24T08:38:18.765Z,0.70
2024-02-24T08:40:45.481Z,0.68
2024-02-24T08:43:12.978Z,1.20
2024-02-24T08:45:39.663Z,1.00
2024-02-24T08:48:07.048Z,0.20
2024-02-24T08:50:33.723Z,0.80
2024-02-24T08:53:00.446Z,1.17
2024-02-24T08:55:27.007Z,2.47
2024-02-24T08:57:54.072Z,0.40
2024-02-24T09:00:21.024Z,1.00
2024-02-24T09:02:49.134Z,0.40
2024-02-24T09:05:16.320Z,0.52
2024-02-24T09:07:42.938Z,2.53
2024-02-24T09:10:09.778Z,2.42
2024-02-24T09:12:36.417Z,1.40
2024-02-24T09:15:03.541Z,0.73
2024-02-24T09:17:30.642Z,0.50
2024-02-24T09:19:57.463Z,2.08
2024-02-24T09:22:24.026Z,0.52
2024-02-24T09:24:50.572Z,1.13
2024-02-24T09:27:17.212Z,0.47
2024-02-24T09:29:43.813Z,0.63
2024-02-24T09:32:10.712Z,0.25
2024-02-24T09:34:38.128Z,0.68
2024-02-24T09:37:06.313Z,1.00
2024-02-24T09:39:33.065Z,1.95
2024-02-24T09:42:01.554Z,0.10
2024-02-24T09:44:31.316Z,0.43
2024-02-24T09:47:03.042Z,0.15
2024-02-24T09:49:31.848Z,2.05
2024-02-24T09:52:01.719Z,0.50
2024-02-24T09:54:29.375Z,0.30
2024-02-24T09:56:57.535Z,0.73
2024-02-24T09:59:26.221Z,1.50
2024-02-24T10:01:53.191Z,0.75
2024-02-24T10:04:20.055Z,0.95
2024-02-24T10:06:47.106Z,1.60
2024-02-24T10:09:13.819Z,1.10
2024-02-24T10:11:41.556Z,3.67
2024-02-24T10:14:09.128Z,1.20
2024-02-24T10:16:38.200Z,0.88
2024-02-24T10:19:08.796Z,1.98
2024-02-24T10:21:35.668Z,0.63
2024-02-24T10:24:04.092Z,0.32
2024-02-24T10:26:31.232Z,3.08
2024-02-24T10:28:58.307Z,1.45
2024-02-24T10:31:26.588Z,2.15
2024-02-24T10:33:54.499Z,0.95
2024-02-24T10:36:21.949Z,1.73
2024-02-24T10:38:56.045Z,2.05
2024-02-24T10:44:02.576Z,0.38
2024-02-24T10:46:37.378Z,0.77
2024-02-24T10:49:05.543Z,1.98
2024-02-24T10:51:35.671Z,0.70
2024-02-24T10:54:13.861Z,2.17
2024-02-24T10:56:41.341Z,0.95
2024-02-24T10:59:11.968Z,0.57
2024-02-24T11:01:42.756Z,0.95
2024-02-24T11:04:11.426Z,0.77
2024-02-24T11:06:51.758Z,2.08
2024-02-24T11:09:34.884Z,2.17
2024-02-24T11:12:04.455Z,1.02
2024-02-24T11:14:32.813Z,3.00
2024-02-24T11:17:00.166Z,6.18
2024-02-24T11:19:49.005Z,0.93
2024-02-24T11:22:20.124Z,0.65
2024-02-24T11:24:59.305Z,0.95
2024-02-24T11:27:31.346Z,0.30
2024-02-24T11:30:20.868Z,0.68
2024-02-24T11:32:47.670Z,0.20
2024-02-24T11:35:14.837Z,0.65
2024-02-24T11:37:41.891Z,0.77
2024-02-24T11:40:10.107Z,0.98
2024-02-24T11:42:38.545Z,1.17
2024-02-24T11:45:07.615Z,1.00
2024-02-24T11:47:36.702Z,0.15
2024-02-24T11:50:04.221Z,0.32
2024-02-24T11:52:31.089Z,0.40
2024-02-24T11:54:57.761Z,0.35
2024-02-24T11:57:25.318Z,2.95
2024-02-24T11:59:52.393Z,0.35
2024-02-24T12:02:19.109Z,0.95
2024-02-24T12:04:45.818Z,0.85
2024-02-24T12:07:12.613Z,0.57
2024-02-24T12:09:39.412Z,0.63
2024-02-24T12:12:06.915Z,0.47
2024-02-24T12:14:33.690Z,0.50
2024-02-24T12:17:00.349Z,0.98
2024-02-24T12:19:29.440Z,0.85
2024-02-24T12:21:56.565Z,1.60
2024-02-24T12:24:29.970Z,0.88
2024-02-24T12:27:01.731Z,0.35
2024-02-24T12:29:30.885Z,0.28
2024-02-24T12:31:57.760Z,0.38
2024-02-24T12:34:25.736Z,1.00
2024-02-24T12:36:57.321Z,0.65
2024-02-24T12:39:25.737Z,1.10
2024-02-24T12:41:55.244Z,0.82
2024-02-24T12:44:22.185Z,1.40
2024-02-24T12:46:49.492Z,2.08
2024-02-24T12:49:16.412Z,0.73
2024-02-24T12:51:51.805Z,0.90
2024-02-24T12:54:18.817Z,0.30
2024-02-24T12:56:45.441Z,1.88
2024-02-24T12:59:13.520Z,2.45
2024-02-24T13:01:40.287Z,2.15
2024-02-24T13:04:07.131Z,0.28
2024-02-24T13:06:33.947Z,1.85
2024-02-24T13:09:00.725Z,1.65
2024-02-24T13:11:27.499Z,2.17
2024-02-24T13:13:54.165Z,0.20
2024-02-24T13:16:20.917Z,0.95
2024-02-24T13:18:47.535Z,0.35
2024-02-24T13:21:14.636Z,0.90
2024-02-24T13:23:41.363Z,0.63
2024-02-24T13:26:07.977Z,3.28
2024-02-24T13:28:34.609Z,0.85
2024-02-24T13:31:01.236Z,1.20
2024-02-24T13:33:27.950Z,1.65
2024-02-24T13:35:54.754Z,0.45
2024-02-24T13:38:21.375Z,2.10
2024-02-24T13:40:48.112Z,2.47
2024-02-24T13:43:14.867Z,2.75
2024-02-24T13:45:42.994Z,0.25
2024-02-24T13:48:09.773Z,0.75
2024-02-24T13:50:36.698Z,1.00
2024-02-24T13:53:03.463Z,0.22
2024-02-24T13:55:30.005Z,2.30
2024-02-24T13:57:56.572Z,1.90
2024-02-24T14:00:23.589Z,2.70
2024-02-24T14:02:50.271Z,0.68
2024-02-24T14:05:17.085Z,0.63
2024-02-24T14:07:44.835Z,1.40
2024-02-24T14:10:11.736Z,0.98
2024-02-24T14:12:38.251Z,0.60
2024-02-24T14:15:05.349Z,0.95
2024-02-24T14:17:32.111Z,0.65
2024-02-24T14:20:00.441Z,2.53
2024-02-24T14:22:29.579Z,4.72
2024-02-24T14:24:58.108Z,1.38
2024-02-24T14:27:25.656Z,2.63
2024-02-24T14:29:52.169Z,1.52
2024-02-24T14:32:18.744Z,0.40
2024-02-24T14:34:45.469Z,1.25
2024-02-24T14:37:12.417Z,1.65
2024-02-24T14:39:39.296Z,0.85
2024-02-24T14:42:06.513Z,2.80
2024-02-24T14:44:33.166Z,2.03
2024-02-24T14:47:08.761Z,1.02
2024-02-24T14:49:35.819Z,2.42
2024-02-24T14:52:02.568Z,1.95
2024-02-24T14:54:29.419Z,1.38
2024-02-24T14:56:56.145Z,1.90
2024-02-24T14:59:23.408Z,4.78
2024-02-24T15:01:50.854Z,1.52
2024-02-24T15:04:20.329Z,4.13
2024-02-24T15:06:48.270Z,1.27
2024-02-24T15:09:15.413Z,1.35
2024-02-24T15:11:45.810Z,1.95
2024-02-24T15:14:12.447Z,1.33
2024-02-24T15:16:39.246Z,2.08
2024-02-24T15:19:05.936Z,3.65
2024-02-24T15:21:32.526Z,1.90
2024-02-24T15:23:59.217Z,1.88
2024-02-24T15:26:27.726Z,4.68
2024-02-24T15:28:54.288Z,0.63
2024-02-24T15:31:20.933Z,0.65
2024-02-24T15:33:47.576Z,2.65
2024-02-24T15:36:14.332Z,2.10
2024-02-24T15:38:40.951Z,2.75
2024-02-24T15:41:09.422Z,1.63
2024-02-24T15:43:35.990Z,4.82
2024-02-24T15:46:02.605Z,3.08
2024-02-24T15:48:29.832Z,1.08
2024-02-24T15:50:56.477Z,2.17
2024-02-24T15:53:23.136Z,2.33
2024-02-24T15:55:50.301Z,0.60
2024-02-24T15:58:16.815Z,1.80
2024-02-24T16:00:44.674Z,1.20
2024-02-24T16:03:11.319Z,2.25
2024-02-24T16:05:38.061Z,1.02
2024-02-24T16:08:05.060Z,3.53
2024-02-24T16:10:31.649Z,0.45
2024-02-24T16:12:58.474Z,0.73
2024-02-24T16:15:25.032Z,0.60
2024-02-24T16:17:51.606Z,1.65
2024-02-24T16:20:19.289Z,3.22
2024-02-24T16:22:45.902Z,2.25
2024-02-24T16:25:16.985Z,2.42
2024-02-24T16:27:43.981Z,0.65
2024-02-24T16:30:11.063Z,1.58
2024-02-24T16:32:37.672Z,1.05
2024-02-24T16:35:04.636Z,1.55
2024-02-24T16:37:31.272Z,1.33
2024-02-24T16:39:57.826Z,2.28
2024-02-24T16:42:24.393Z,0.98
2024-02-24T16:44:51.598Z,1.42
2024-02-24T16:47:18.235Z,1.05
2024-02-24T16:49:45.166Z,1.20
2024-02-24T16:52:11.846Z,0.70
2024-02-24T16:54:39.626Z,2.03
2024-02-24T16:57:06.396Z,1.02
2024-02-24T16:59:33.018Z,2.17
2024-02-24T17:01:59.593Z,1.85
2024-02-24T17:04:26.089Z,1.40
2024-02-24T17:06:52.916Z,0.88
2024-02-24T17:09:19.684Z,3.67
2024-02-24T17:11:46.404Z,0.85
2024-02-24T17:14:12.994Z,3.20
2024-02-24T17:16:39.621Z,1.40
2024-02-24T17:19:06.950Z,2.20
2024-02-24T17:21:33.602Z,0.73
2024-02-24T17:24:00.227Z,2.65
2024-02-24T17:26:26.900Z,2.63
2024-02-24T17:28:54.264Z,3.90
2024-02-24T17:31:21.030Z,1.10
2024-02-24T17:33:47.930Z,2.55
2024-02-24T17:36:15.621Z,1.65
2024-02-24T17:38:42.585Z,1.45
2024-02-24T17:41:09.189Z,2.63
2024-02-24T17:43:35.779Z,2.38
2024-02-24T17:46:02.764Z,3.08
2024-02-24T17:48:29.875Z,4.35
2024-02-24T17:50:56.888Z,3.90
2024-02-24T17:53:24.101Z,2.13
2024-02-24T17:55:51.180Z,2.95
2024-02-24T17:58:19.025Z,2.97
2024-02-24T18:00:47.804Z,3.38
2024-02-24T18:03:17.556Z,5.20
2024-02-24T18:05:44.957Z,4.60
2024-02-24T18:08:13.096Z,5.03
2024-02-24T18:10:39.995Z,1.77
2024-02-24T18:13:06.604Z,6.65
2024-02-24T18:15:33.197Z,4.60
2024-02-24T18:17:59.959Z,3.65
2024-02-24T18:20:26.889Z,3.78
2024-02-24T18:22:53.534Z,3.15
2024-02-24T18:25:20.313Z,4.15
2024-02-24T18:27:47.885Z,1.95
2024-02-24T18:30:14.648Z,1.55
2024-02-24T18:32:41.547Z,1.58
2024-02-24T18:35:08.764Z,3.03
2024-02-24T18:37:35.254Z,2.17
2024-02-24T18:40:05.825Z,5.38
2024-02-24T18:42:33.116Z,4.05
2024-02-24T18:45:00.275Z,1.90
2024-02-24T18:47:27.116Z,3.20
2024-02-24T18:49:54.591Z,4.65
2024-02-24T18:52:21.414Z,5.82
2024-02-24T18:54:48.696Z,11.15
2024-02-24T18:57:15.613Z,5.53
2024-02-24T18:59:43.602Z,6.07
2024-02-24T19:02:13.415Z,6.68
2024-02-24T19:04:40.732Z,4.55
2024-02-24T19:07:12.242Z,6.55
2024-02-24T19:09:42.302Z,6.95
2024-02-24T19:12:09.471Z,5.43
2024-02-24T19:14:45.276Z,4.43
2024-02-24T19:17:18.362Z,6.13
2024-02-24T19:19:45.556Z,5.43
2024-02-24T19:22:12.087Z,8.07
2024-02-24T19:24:38.672Z,5.97
2024-02-24T19:27:05.678Z,5.78
2024-02-24T19:29:32.287Z,6.78
2024-02-24T19:31:59.353Z,4.82
2024-02-24T19:34:26.149Z,7.15
2024-02-24T19:36:53.359Z,7.03
2024-02-24T19:39:20.013Z,4.43
2024-02-24T19:41:46.880Z,4.78
2024-02-24T19:44:13.521Z,5.60
2024-02-24T19:46:40.572Z,9.48
2024-02-24T19:49:09.682Z,5.53
2024-02-24T19:51:36.733Z,15.05
2024-02-24T19:54:03.414Z,8.52
2024-02-24T19:56:32.650Z,10.68
2024-02-24T19:58:59.413Z,5.05
2024-02-24T20:01:26.306Z,6.97
2024-02-24T20:03:53.003Z,4.78
2024-02-24T20:06:19.992Z,3.67
2024-02-24T20:08:46.983Z,4.68
2024-02-24T20:11:13.684Z,10.27
2024-02-24T20:13:40.378Z,6.72
2024-02-24T20:16:07.140Z,6.75
2024-02-24T20:18:34.348Z,6.85
2024-02-24T20:21:01.888Z,5.78
2024-02-24T20:23:28.721Z,4.57
2024-02-24T20:25:55.325Z,5.45
2024-02-24T20:28:22.105Z,3.15
2024-02-24T20:30:49.597Z,8.48
2024-02-24T20:33:16.605Z,4.68
2024-02-24T20:35:43.480Z,5.85
2024-02-24T20:38:10.398Z,6.40
2024-02-24T20:40:38.094Z,9.85
2024-02-24T20:43:05.627Z,6.20
2024-02-24T20:45:32.400Z,7.00
2024-02-24T20:47:59.093Z,5.85
2024-02-24T20:50:26.110Z,3.25
2024-02-24T20:52:52.874Z,4.70
2024-02-24T20:55:19.732Z,3.55
2024-02-24T20:57:46.370Z,4.97
2024-02-24T21:00:13.689Z,3.00
2024-02-24T21:02:41.743Z,7.38
2024-02-24T21:05:08.665Z,2.88
2024-02-24T21:07:35.738Z,2.60
2024-02-24T21:10:02.384Z,5.18
2024-02-24T21:12:28.916Z,7.63
2024-02-24T21:14:55.547Z,7.45
2024-02-24T21:17:22.279Z,4.30
2024-02-24T21:19:48.986Z,4.40
2024-02-24T21:22:15.792Z,6.03
2024-02-24T21:24:42.928Z,3.03
2024-02-24T21:27:09.654Z,6.55
2024-02-24T21:29:36.897Z,7.53
2024-02-24T21:32:03.615Z,5.35
2024-02-24T21:34:31.452Z,4.05
2024-02-24T21:36:58.270Z,5.75
2024-02-24T21:39:25.270Z,7.95
2024-02-24T21:41:52.279Z,5.93
2024-02-24T21:44:19.032Z,5.47
2024-02-24T21:46:45.711Z,3.90
2024-02-24T21:49:12.598Z,7.43
2024-02-24T21:51:39.532Z,3.83
2024-02-24T21:54:10.315Z,4.75
2024-02-24T21:56:37.425Z,3.70
2024-02-24T21:59:03.983Z,7.18
2024-02-24T22:01:30.582Z,7.18
2024-02-24T22:03:57.224Z,8.02
2024-02-24T22:06:24.080Z,4.43
2024-02-24T22:08:50.820Z,6.22
2024-02-24T22:11:17.482Z,8.77
2024-02-24T22:13:45.478Z,4.63
2024-02-24T22:16:12.830Z,3.15
2024-02-24T22:18:40.047Z,9.52
2024-02-24T22:21:10.366Z,4.38
2024-02-24T22:23:37.046Z,9.65
2024-02-24T22:26:03.915Z,4.13
2024-02-24T22:28:30.482Z,6.28
2024-02-24T22:30:57.068Z,3.83
2024-02-24T22:33:23.961Z,4.57
2024-02-24T22:35:54.282Z,2.15
2024-02-24T22:38:21.943Z,4.43
2024-02-24T22:40:48.631Z,4.57
2024-02-24T22:43:16.075Z,6.40
2024-02-24T22:45:43.273Z,5.82
2024-02-24T22:48:11.923Z,3.95
2024-02-24T22:50:38.591Z,4.15
2024-02-24T22:53:05.223Z,5.20
2024-02-24T22:55:34.021Z,7.03
2024-02-24T22:58:01.564Z,5.00
2024-02-24T23:00:28.292Z,8.40
2024-02-24T23:02:55.086Z,6.75
2024-02-24T23:05:21.869Z,6.00
2024-02-24T23:07:48.509Z,6.35
2024-02-24T23:10:15.116Z,6.32
2024-02-24T23:12:42.150Z,5.95
2024-02-24T23:15:10.424Z,5.45
2024-02-24T23:17:38.916Z,8.07
2024-02-24T23:20:06.705Z,7.82
2024-02-24T23:22:33.232Z,6.45
2024-02-24T23:25:00.589Z,7.63
2024-02-24T23:27:27.264Z,8.30
2024-02-24T23:29:54.450Z,8.48
2024-02-24T23:32:22.129Z,8.07
2024-02-24T23:34:48.797Z,7.28
2024-02-24T23:37:15.468Z,1.77
2024-02-24T23:39:42.065Z,3.25
2024-02-24T23:42:08.805Z,5.13
2024-02-24T23:44:35.438Z,7.30
2024-02-24T23:47:02.001Z,7.20
2024-02-24T23:49:28.847Z,13.20
2024-02-24T23:51:55.591Z,7.45
2024-02-24T23:54:22.165Z,6.40
2024-02-24T23:56:48.727Z,7.07
2024-02-24T23:59:15.905Z,5.75
